sim
Sign-in with your pilot id or email,
or register
Callsign
Passwort

Schedule Details

Flight Number: DLH726 (2)
Departure: Munich Airport (EDDM) at 21:40
Arrival: Shanghai Pudong International Airport (ZSPD) at 08:50
Route: Lufthansa Passenger Schedule. Enter filed route here before submitting Pirep.

Weather Information
Getting current METAR information for EDDM 281120Z 27005KT 9999 FEW007 BKN043 09/07 Q1011 NOSIG
Getting current METAR information for ZSPD 281130Z 12003MPS 9999 FEW033 22/17 Q1014 NOSIG

Schedule Frequency

Route Map